Time;durP1;ratioP1;P1;durP2;ratioP2;P2;SDS_P1;SDS_P2;PMS_P1;PMS_P2;Temp;Humidity;BMP_temperature;BMP_pressure;BME280_temperature;BME280_humidity;BME280_pressure;Samples;Min_cycle;Max_cycle;Signal;HPM_P1;HPM_P2
2020/12/12 00:00:15;;;;;;;18.92;8.65;;;4.90;99.90;;;;;;5002567;28;20025;-67
2020/12/12 00:02:41;;;;;;;17.05;8.70;;;4.90;99.90;;;;;;5001734;28;20501;-68
2020/12/12 00:05:07;;;;;;;17.85;9.00;;;4.90;99.90;;;;;;5002554;28;20052;-68
2020/12/12 00:07:33;;;;;;;16.45;8.18;;;4.90;99.90;;;;;;4999536;28;20514;-67
2020/12/12 00:09:59;;;;;;;17.00;8.50;;;4.90;99.90;;;;;;5003052;28;20058;-67
2020/12/12 00:12:24;;;;;;;18.00;8.95;;;4.90;99.90;;;;;;5003054;28;20072;-67
2020/12/12 00:14:50;;;;;;;14.73;7.88;;;5.00;99.90;;;;;;5004295;28;20053;-67
2020/12/12 00:17:18;;;;;;;17.67;7.97;;;5.00;99.90;;;;;;5001825;28;20026;-67
2020/12/12 00:19:47;;;;;;;15.63;8.05;;;5.00;99.90;;;;;;5003860;28;20033;-68
2020/12/12 00:22:13;;;;;;;15.43;8.15;;;4.90;99.90;;;;;;5000577;28;20403;-67
2020/12/12 00:24:38;;;;;;;20.40;8.27;;;4.90;99.90;;;;;;5005158;28;20042;-68
2020/12/12 00:27:04;;;;;;;16.42;8.68;;;5.00;99.90;;;;;;5000660;28;20474;-67
2020/12/12 00:29:29;;;;;;;16.63;8.63;;;4.90;99.90;;;;;;5004247;28;20038;-66
2020/12/12 00:31:59;;;;;;;20.20;8.95;;;4.90;99.90;;;;;;5005841;28;20030;-67
2020/12/12 00:34:27;;;;;;;17.42;8.82;;;4.90;99.90;;;;;;5001256;28;20061;-67
2020/12/12 00:36:54;;;;;;;14.20;7.60;;;4.90;99.90;;;;;;5003174;28;20026;-67
2020/12/12 00:39:20;;;;;;;19.98;9.95;;;5.00;99.90;;;;;;5001443;28;20077;-68
2020/12/12 00:41:46;;;;;;;16.30;8.18;;;5.00;99.90;;;;;;5005377;28;20061;-67
2020/12/12 00:44:12;;;;;;;17.25;9.05;;;5.00;99.90;;;;;;5000578;28;20054;-67
2020/12/12 00:46:39;;;;;;;20.27;8.68;;;5.00;99.90;;;;;;5002763;28;20026;-67
2020/12/12 00:49:05;;;;;;;21.40;8.77;;;5.00;99.90;;;;;;5004613;28;20041;-67
2020/12/12 00:51:31;;;;;;;16.92;8.20;;;5.00;99.90;;;;;;5001640;28;20034;-66
2020/12/12 00:53:57;;;;;;;18.83;9.55;;;5.00;99.90;;;;;;4998764;28;20042;-67
2020/12/12 00:56:22;;;;;;;18.00;8.70;;;5.00;99.90;;;;;;5001353;28;20034;-67
2020/12/12 00:58:48;;;;;;;20.83;9.30;;;5.00;99.90;;;;;;5003490;28;20036;-67
2020/12/12 01:01:15;;;;;;;17.02;8.52;;;5.00;99.90;;;;;;4999456;28;20483;-68
2020/12/12 01:03:41;;;;;;;17.08;8.30;;;5.00;99.90;;;;;;4998197;28;20041;-68
2020/12/12 01:06:11;;;;;;;19.40;9.27;;;5.00;99.90;;;;;;4997923;28;20045;-67
2020/12/12 01:08:37;;;;;;;15.87;8.63;;;5.00;99.90;;;;;;5000347;28;20030;-67
2020/12/12 01:11:04;;;;;;;18.92;8.52;;;5.00;99.90;;;;;;4998049;28;20614;-67
2020/12/12 01:13:29;;;;;;;23.10;9.43;;;5.00;99.90;;;;;;5000945;28;20037;-68
2020/12/12 01:15:55;;;;;;;17.70;9.30;;;5.00;99.90;;;;;;4996344;28;20034;-67
2020/12/12 01:18:20;;;;;;;16.70;8.68;;;5.00;99.90;;;;;;5000305;28;20049;-67
2020/12/12 01:20:46;;;;;;;25.35;9.77;;;5.10;99.90;;;;;;4998966;28;20080;-68
2020/12/12 01:23:11;;;;;;;22.60;9.80;;;5.00;99.90;;;;;;4999439;28;20089;-67
2020/12/12 01:25:38;;;;;;;20.05;9.55;;;5.10;99.90;;;;;;4998378;28;20690;-67
2020/12/12 01:28:06;;;;;;;16.13;8.63;;;5.10;99.90;;;;;;4998200;28;20022;-68
2020/12/12 01:30:33;;;;;;;17.95;9.38;;;5.10;99.90;;;;;;4995230;28;20034;-68
2020/12/12 01:32:59;;;;;;;16.80;8.25;;;5.10;99.90;;;;;;5000990;28;20032;-68
2020/12/12 01:35:24;;;;;;;16.73;8.55;;;5.10;99.90;;;;;;4997327;28;20117;-67
2020/12/12 01:37:50;;;;;;;17.88;8.70;;;5.20;99.90;;;;;;5000405;28;20038;-66
2020/12/12 01:40:16;;;;;;;17.38;9.27;;;5.10;99.90;;;;;;5000404;28;20092;-67
2020/12/12 01:42:41;;;;;;;18.10;8.27;;;5.10;99.90;;;;;;4997108;28;20026;-67
2020/12/12 01:45:08;;;;;;;15.60;8.02;;;5.20;99.90;;;;;;4998358;28;20034;-67
2020/12/12 01:47:34;;;;;;;14.70;7.85;;;5.10;99.90;;;;;;4999910;28;20632;-67
2020/12/12 01:50:00;;;;;;;17.30;7.72;;;5.10;99.90;;;;;;4997370;28;20072;-67
2020/12/12 01:52:27;;;;;;;16.55;9.07;;;5.10;99.90;;;;;;5000393;28;20054;-68
2020/12/12 01:54:53;;;;;;;15.52;8.50;;;5.10;99.90;;;;;;5000044;28;20053;-67
2020/12/12 01:57:21;;;;;;;16.10;8.20;;;5.10;99.90;;;;;;4996473;28;20070;-67
2020/12/12 01:59:51;;;;;;;18.08;8.63;;;5.20;99.90;;;;;;4999804;28;20038;-67
2020/12/12 02:02:18;;;;;;;14.40;8.27;;;5.10;99.90;;;;;;4998464;28;20519;-68
2020/12/12 02:04:54;;;;;;;16.40;8.52;;;5.10;99.90;;;;;;4996967;28;20499;-68
2020/12/12 02:07:21;;;;;;;19.80;9.65;;;5.10;99.90;;;;;;5000356;28;20042;-71
2020/12/12 02:09:48;;;;;;;17.88;9.00;;;5.10;99.90;;;;;;4997497;28;20084;-67
2020/12/12 02:12:15;;;;;;;18.65;9.35;;;5.10;99.90;;;;;;4997574;28;20117;-68
2020/12/12 02:14:42;;;;;;;16.95;8.77;;;5.10;99.90;;;;;;4999398;28;20120;-67
2020/12/12 02:17:09;;;;;;;17.67;9.27;;;5.10;99.90;;;;;;4999718;28;20123;-67
2020/12/12 02:19:35;;;;;;;19.35;10.82;;;5.10;99.90;;;;;;4996875;28;20117;-67
2020/12/12 02:22:04;;;;;;;18.55;10.25;;;5.20;99.90;;;;;;5000252;28;20092;-67
2020/12/12 02:24:30;;;;;;;18.05;8.77;;;5.20;99.90;;;;;;5001498;28;20052;-67
2020/12/12 02:27:05;;;;;;;18.42;9.57;;;5.20;99.90;;;;;;4999910;28;20030;-67
2020/12/12 02:29:46;;;;;;;18.48;9.18;;;5.20;99.90;;;;;;5001570;28;20487;-67
2020/12/12 02:32:12;;;;;;;20.08;9.75;;;5.20;99.90;;;;;;4998570;28;20149;-68
2020/12/12 02:34:38;;;;;;;18.42;9.50;;;5.20;99.90;;;;;;4998385;28;20193;-67
2020/12/12 02:37:04;;;;;;;17.75;10.23;;;5.20;99.90;;;;;;4999383;28;20073;-67
2020/12/12 02:39:29;;;;;;;22.17;9.90;;;5.20;99.90;;;;;;5004025;28;20034;-67
2020/12/12 02:41:55;;;;;;;18.88;9.77;;;5.30;99.90;;;;;;4998918;28;20034;-66
2020/12/12 02:44:21;;;;;;;20.33;9.50;;;5.20;99.90;;;;;;5003911;28;20046;-67
2020/12/12 02:46:46;;;;;;;17.80;9.32;;;5.20;99.90;;;;;;5001003;28;20035;-67
2020/12/12 02:49:12;;;;;;;19.75;9.95;;;5.20;99.90;;;;;;5001468;28;20054;-67
2020/12/12 02:51:42;;;;;;;19.88;9.48;;;5.30;99.90;;;;;;5001875;28;20427;-67
2020/12/12 02:54:08;;;;;;;23.17;9.80;;;5.30;99.90;;;;;;5005018;28;20041;-67
2020/12/12 02:56:34;;;;;;;20.60;9.77;;;5.30;99.90;;;;;;5002167;28;20038;-73
2020/12/12 02:59:01;;;;;;;20.42;8.55;;;5.30;99.90;;;;;;4999690;28;20608;-67
2020/12/12 03:01:26;;;;;;;20.45;9.50;;;5.30;99.90;;;;;;5003442;28;20042;-67
2020/12/12 03:03:52;;;;;;;19.20;9.02;;;5.30;99.90;;;;;;4999649;28;20045;-68
2020/12/12 03:06:18;;;;;;;20.08;9.65;;;5.30;99.90;;;;;;5003191;28;20344;-67
2020/12/12 03:08:44;;;;;;;18.15;9.13;;;5.30;99.90;;;;;;5000604;28;20038;-67
2020/12/12 03:11:09;;;;;;;20.45;9.05;;;5.30;99.90;;;;;;5002125;28;20072;-68
2020/12/12 03:13:35;;;;;;;18.33;9.18;;;5.30;99.90;;;;;;5002154;28;20030;-67
2020/12/12 03:16:00;;;;;;;18.30;8.93;;;5.30;99.90;;;;;;5000567;28;20530;-67
2020/12/12 03:18:26;;;;;;;16.58;8.85;;;5.30;99.90;;;;;;4998220;28;20463;-66
2020/12/12 03:20:51;;;;;;;19.58;9.73;;;5.30;99.90;;;;;;5003124;28;20041;-67
2020/12/12 03:23:18;;;;;;;22.20;10.43;;;5.30;99.90;;;;;;4998602;28;20038;-66
2020/12/12 03:25:43;;;;;;;19.85;9.45;;;5.30;99.90;;;;;;5000511;28;20030;-67
2020/12/12 03:28:09;;;;;;;16.80;8.52;;;5.30;99.90;;;;;;4999669;28;20030;-67
2020/12/12 03:30:36;;;;;;;20.75;10.02;;;5.30;99.90;;;;;;5001616;28;20391;-67
2020/12/12 03:33:02;;;;;;;21.27;8.57;;;5.30;99.90;;;;;;5002456;28;20502;-67
2020/12/12 03:35:28;;;;;;;22.38;9.95;;;5.30;99.90;;;;;;5008458;28;20042;-65
2020/12/12 03:37:56;;;;;;;22.08;9.38;;;5.30;99.90;;;;;;5000266;28;20591;-67
2020/12/12 03:40:23;;;;;;;16.73;9.27;;;5.30;99.90;;;;;;5015127;28;20034;-66
2020/12/12 03:42:53;;;;;;;19.42;9.23;;;5.30;99.90;;;;;;5002504;28;20501;-66
2020/12/12 03:45:20;;;;;;;17.77;8.77;;;5.30;99.90;;;;;;4997863;28;20065;-67
2020/12/12 03:47:46;;;;;;;18.90;8.90;;;5.20;99.90;;;;;;5001476;28;20277;-67
2020/12/12 03:50:13;;;;;;;16.75;8.77;;;5.30;99.90;;;;;;4998487;28;20042;-67
2020/12/12 03:52:38;;;;;;;15.95;9.10;;;5.30;99.90;;;;;;4999928;28;20089;-67
2020/12/12 03:55:04;;;;;;;17.90;8.88;;;5.20;99.90;;;;;;5004679;28;20038;-67
2020/12/12 03:57:29;;;;;;;16.50;7.78;;;5.30;99.90;;;;;;5000613;28;20041;-65
2020/12/12 03:59:55;;;;;;;14.38;8.13;;;5.30;99.90;;;;;;4999471;28;20031;-66
2020/12/12 04:02:20;;;;;;;19.55;8.52;;;5.30;99.90;;;;;;5002706;28;20040;-66
2020/12/12 04:04:46;;;;;;;15.30;7.88;;;5.30;99.90;;;;;;4999618;28;20046;-66
2020/12/12 04:07:12;;;;;;;14.02;6.95;;;5.30;99.90;;;;;;5016069;28;20061;-66
2020/12/12 04:09:37;;;;;;;16.60;8.20;;;5.30;99.90;;;;;;5000880;28;20088;-66
2020/12/12 04:12:03;;;;;;;15.27;7.60;;;5.40;99.90;;;;;;4999837;28;20218;-66
2020/12/12 04:14:28;;;;;;;14.82;7.28;;;5.40;99.90;;;;;;5001590;28;20084;-67
2020/12/12 04:16:54;;;;;;;15.60;7.22;;;5.40;99.90;;;;;;4997351;28;20739;-66
2020/12/12 04:19:19;;;;;;;16.10;8.52;;;5.40;99.90;;;;;;5002674;28;20049;-66
2020/12/12 04:21:45;;;;;;;15.68;7.18;;;5.40;99.90;;;;;;4998842;28;20034;-67
2020/12/12 04:24:10;;;;;;;15.25;8.00;;;5.40;99.90;;;;;;5002750;28;20519;-66
2020/12/12 04:26:36;;;;;;;16.02;8.10;;;5.40;99.90;;;;;;5000286;28;20420;-65
2020/12/12 04:29:02;;;;;;;15.30;8.23;;;5.30;99.90;;;;;;4998645;28;20041;-67
2020/12/12 04:31:27;;;;;;;15.13;7.50;;;5.40;99.90;;;;;;5001342;28;20072;-67
2020/12/12 04:33:53;;;;;;;15.27;7.65;;;5.40;99.90;;;;;;4998952;28;20062;-69
2020/12/12 04:36:19;;;;;;;15.23;7.88;;;5.40;99.90;;;;;;5002286;28;20041;-65
2020/12/12 04:38:44;;;;;;;14.13;7.57;;;5.50;99.90;;;;;;4999111;28;20023;-67
2020/12/12 04:41:10;;;;;;;13.88;7.90;;;5.40;99.90;;;;;;5001160;28;20476;-67
2020/12/12 04:43:39;;;;;;;15.02;7.28;;;5.40;99.90;;;;;;4999570;28;20034;-66
2020/12/12 04:46:05;;;;;;;16.63;7.43;;;5.40;99.90;;;;;;4999766;28;20042;-66
2020/12/12 04:48:30;;;;;;;15.02;7.50;;;5.40;99.90;;;;;;5000821;28;20026;-66
2020/12/12 04:50:57;;;;;;;20.08;7.85;;;5.40;99.90;;;;;;5001350;28;20399;-70
2020/12/12 04:53:26;;;;;;;21.20;8.77;;;5.40;99.90;;;;;;5007129;28;20034;-67
2020/12/12 04:55:54;;;;;;;23.27;9.15;;;5.40;99.90;;;;;;5007282;28;20092;-67
2020/12/12 04:58:24;;;;;;;18.05;8.52;;;5.40;99.90;;;;;;5006259;28;20038;-66
2020/12/12 05:00:51;;;;;;;;;;;5.40;99.90;;;;;;5008411;28;20056;-67
2020/12/12 05:03:19;;;;;;;19.02;8.07;;;5.50;99.90;;;;;;5005397;28;19929;-67
2020/12/12 05:05:45;;;;;;;20.50;7.93;;;5.50;99.90;;;;;;5009622;28;20030;-66
2020/12/12 05:08:11;;;;;;;23.42;8.15;;;5.50;99.90;;;;;;5012154;28;20180;-66
2020/12/12 05:10:38;;;;;;;25.15;9.05;;;5.40;99.90;;;;;;5015490;28;20030;-67
2020/12/12 05:13:13;;;;;;;27.10;8.73;;;5.50;99.90;;;;;;5006020;28;20028;-66
2020/12/12 05:15:39;;;;;;;19.73;8.80;;;5.50;99.90;;;;;;5003426;28;20038;-66
2020/12/12 05:18:05;;;;;;;18.95;8.43;;;5.50;99.90;;;;;;5002740;28;20033;-67
2020/12/12 05:20:32;;;;;;;20.10;9.15;;;5.40;99.90;;;;;;4997818;28;20532;-65
2020/12/12 05:22:58;;;;;;;24.33;9.10;;;5.50;99.90;;;;;;5000084;28;20092;-66
2020/12/12 05:25:23;;;;;;;22.08;9.32;;;5.50;99.90;;;;;;5001137;28;20034;-66
2020/12/12 05:27:49;;;;;;;21.70;9.43;;;5.50;99.90;;;;;;4996962;28;20036;-66
2020/12/12 05:30:15;;;;;;;30.20;9.68;;;5.50;99.90;;;;;;4997321;28;20463;-65
2020/12/12 05:32:43;;;;;;;21.90;9.02;;;5.50;99.90;;;;;;5000690;28;20057;-65
2020/12/12 05:35:08;;;;;;;24.20;10.18;;;5.50;99.90;;;;;;4996543;28;20417;-66
2020/12/12 05:37:39;;;;;;;21.77;9.50;;;5.50;99.90;;;;;;4999764;28;20563;-65
2020/12/12 05:40:04;;;;;;;33.10;10.73;;;5.50;99.90;;;;;;4998183;28;20390;-65
2020/12/12 05:42:31;;;;;;;19.77;9.10;;;5.50;99.90;;;;;;5000926;28;20027;-66
2020/12/12 05:44:57;;;;;;;25.77;9.98;;;5.50;99.90;;;;;;4999708;28;20525;-66
2020/12/12 05:47:23;;;;;;;24.48;8.90;;;5.60;99.90;;;;;;4998216;28;20057;-66
2020/12/12 05:49:49;;;;;;;22.92;9.40;;;5.60;99.90;;;;;;5003810;28;20117;-67
2020/12/12 05:52:16;;;;;;;24.08;10.40;;;5.50;99.90;;;;;;5007295;28;20053;-67
2020/12/12 05:54:42;;;;;;;23.85;10.48;;;5.60;99.90;;;;;;5010664;28;20040;-65
2020/12/12 05:57:11;;;;;;;28.80;10.27;;;5.60;99.90;;;;;;4998116;28;20037;-65
2020/12/12 05:59:38;;;;;;;24.20;9.63;;;5.50;99.90;;;;;;4996446;28;20041;-66
2020/12/12 06:02:05;;;;;;;29.02;9.65;;;5.50;99.90;;;;;;5000125;28;20033;-66
2020/12/12 06:04:39;;;;;;;30.38;10.50;;;5.50;99.90;;;;;;4999324;28;20041;-66
2020/12/12 06:07:05;;;;;;;52.08;11.15;;;5.60;99.90;;;;;;5001875;28;20031;-65
2020/12/12 06:09:37;;;;;;;27.27;10.00;;;5.50;99.90;;;;;;5000793;28;20605;-67
2020/12/12 06:12:07;;;;;;;25.50;9.23;;;5.60;99.90;;;;;;4997074;28;20112;-66
2020/12/12 06:14:37;;;;;;;32.83;9.80;;;5.50;99.90;;;;;;4998732;28;20042;-66
2020/12/12 06:17:22;;;;;;;27.70;9.48;;;5.60;99.90;;;;;;4998377;28;20026;-65
2020/12/12 06:19:50;;;;;;;31.10;9.93;;;5.60;99.90;;;;;;4997190;28;20049;-65
2020/12/12 06:22:21;;;;;;;26.15;9.68;;;5.60;99.90;;;;;;5000655;28;20034;-67
2020/12/12 06:24:55;;;;;;;27.40;10.43;;;5.60;99.90;;;;;;4996732;28;20042;-66
2020/12/12 06:27:20;;;;;;;43.67;11.63;;;5.60;99.90;;;;;;4997952;28;20517;-66
2020/12/12 06:29:47;;;;;;;36.25;11.10;;;5.50;99.90;;;;;;4999750;28;20033;-65
2020/12/12 06:32:17;;;;;;;40.60;11.10;;;5.60;99.90;;;;;;4996942;28;20058;-67
2020/12/12 06:34:44;;;;;;;40.03;12.85;;;5.60;99.90;;;;;;4999004;28;20060;-67
2020/12/12 06:37:26;;;;;;;28.05;12.07;;;5.60;99.90;;;;;;4997322;28;20117;-65
2020/12/12 06:39:52;;;;;;;34.90;10.95;;;5.60;99.90;;;;;;5000713;28;20042;-65
2020/12/12 06:42:40;;;;;;;29.70;9.82;;;5.60;99.90;;;;;;4997536;28;20105;-66
2020/12/12 06:48:30;;;;;;;35.50;11.35;;;5.60;99.90;;;;;;4998683;28;20042;-66
2020/12/12 06:50:57;;;;;;;36.63;13.93;;;5.70;99.90;;;;;;4998812;28;20134;-66
2020/12/12 06:53:24;;;;;;;30.10;10.95;;;5.70;99.90;;;;;;4997712;28;20399;-66
2020/12/12 06:56:11;;;;;;;56.22;13.50;;;5.70;99.90;;;;;;5001590;28;20113;-65
2020/12/12 06:58:37;;;;;;;48.83;12.82;;;5.60;99.90;;;;;;4996757;28;20092;-66
2020/12/12 07:01:32;;;;;;;36.88;11.38;;;5.70;99.90;;;;;;4999310;28;20035;-65
2020/12/12 07:04:05;;;;;;;33.88;11.93;;;5.70;99.90;;;;;;5013506;28;20054;-65
2020/12/12 07:06:33;;;;;;;40.65;11.10;;;5.70;99.90;;;;;;4997971;28;20038;-65
2020/12/12 07:09:08;;;;;;;32.70;10.02;;;5.70;99.90;;;;;;4998612;28;20038;-66
2020/12/12 07:11:34;;;;;;;34.70;11.65;;;5.70;99.90;;;;;;4997414;28;20042;-66
2020/12/12 07:14:01;;;;;;;43.10;12.55;;;5.70;99.90;;;;;;4998518;28;20023;-65
2020/12/12 07:16:27;;;;;;;34.97;11.88;;;5.70;99.90;;;;;;4996790;28;20034;-67
2020/12/12 07:18:53;;;;;;;38.15;11.65;;;5.80;99.90;;;;;;4997644;28;20034;-65
2020/12/12 07:21:19;;;;;;;38.25;12.38;;;5.70;99.90;;;;;;4997725;28;20054;-66
2020/12/12 07:23:46;;;;;;;36.00;12.70;;;5.70;99.90;;;;;;5003150;28;20060;-67
2020/12/12 07:26:12;;;;;;;42.67;10.57;;;5.70;99.90;;;;;;5000604;28;20037;-66
2020/12/12 07:28:38;;;;;;;40.58;12.35;;;5.70;99.90;;;;;;5004506;28;20034;-65
2020/12/12 07:31:04;;;;;;;31.13;10.25;;;5.70;99.90;;;;;;5000097;28;20030;-66
2020/12/12 07:33:30;;;;;;;54.60;14.38;;;5.70;99.90;;;;;;5002721;28;20130;-66
2020/12/12 07:35:56;;;;;;;45.35;12.13;;;5.70;99.90;;;;;;4999535;28;20120;-66
2020/12/12 07:38:22;;;;;;;35.15;13.10;;;5.70;99.90;;;;;;5002038;28;20138;-67
2020/12/12 07:40:48;;;;;;;41.00;11.35;;;5.80;99.90;;;;;;5000935;28;20634;-66
2020/12/12 07:43:14;;;;;;;28.65;11.30;;;5.70;99.90;;;;;;5000385;28;20113;-66
2020/12/12 07:45:59;;;;;;;42.55;12.65;;;5.70;99.90;;;;;;5003713;28;20036;-65
2020/12/12 07:48:25;;;;;;;43.72;13.15;;;5.70;99.90;;;;;;5000361;28;20446;-65
2020/12/12 07:50:51;;;;;;;35.35;11.70;;;5.70;99.90;;;;;;5002873;28;20114;-66
2020/12/12 07:53:18;;;;;;;37.10;12.18;;;5.80;99.90;;;;;;5004034;28;20030;-66
2020/12/12 07:56:00;;;;;;;37.63;11.35;;;5.80;99.90;;;;;;5000188;28;20030;-66
2020/12/12 07:58:28;;;;;;;47.08;12.73;;;5.80;99.90;;;;;;5000073;28;20088;-65
2020/12/12 08:01:01;;;;;;;52.15;12.93;;;5.80;99.90;;;;;;5000240;28;20030;-65
2020/12/12 08:03:27;;;;;;;47.95;12.48;;;5.80;99.90;;;;;;4999951;28;20026;-67
2020/12/12 08:06:04;;;;;;;54.40;13.75;;;5.80;99.90;;;;;;5001134;28;20030;-65
2020/12/12 08:08:29;;;;;;;42.83;12.35;;;5.90;99.90;;;;;;4999624;28;20045;-67
2020/12/12 08:10:59;;;;;;;42.42;12.73;;;5.90;99.90;;;;;;4999306;28;20109;-66
2020/12/12 08:13:27;;;;;;;50.08;12.85;;;6.00;99.90;;;;;;4999754;28;20038;-66
2020/12/12 08:16:04;;;;;;;47.20;11.88;;;5.90;99.90;;;;;;5000716;28;20033;-65
2020/12/12 08:18:30;;;;;;;66.32;14.20;;;6.00;99.90;;;;;;5005548;28;20045;-66
2020/12/12 08:21:16;;;;;;;59.08;13.38;;;5.90;99.90;;;;;;4999916;28;20392;-67
2020/12/12 08:23:43;;;;;;;53.92;14.32;;;5.90;99.90;;;;;;4999543;28;20093;-66
2020/12/12 08:26:13;;;;;;;80.30;16.65;;;6.00;99.90;;;;;;5000315;28;20090;-66
2020/12/12 08:28:39;;;;;;;38.95;12.02;;;6.00;99.90;;;;;;4999395;28;20026;-66
2020/12/12 08:31:12;;;;;;;50.88;13.30;;;6.00;99.90;;;;;;4998143;28;20041;-66
2020/12/12 08:33:38;;;;;;;61.85;13.77;;;6.00;99.90;;;;;;4997743;28;20116;-67
2020/12/12 08:36:11;;;;;;;86.20;16.05;;;6.00;99.90;;;;;;5002004;28;20547;-66
2020/12/12 08:38:37;;;;;;;68.40;13.10;;;6.10;99.90;;;;;;4999288;28;20038;-66
2020/12/12 08:41:11;;;;;;;47.13;13.45;;;6.00;99.90;;;;;;5000833;28;20028;-66
2020/12/12 08:43:37;;;;;;;86.32;15.40;;;6.10;99.90;;;;;;4995700;28;20070;-66
2020/12/12 08:46:03;;;;;;;43.75;12.00;;;6.10;99.90;;;;;;4998438;28;20053;-66
2020/12/12 08:48:36;;;;;;;44.28;13.18;;;6.10;99.90;;;;;;5000778;28;20117;-66
2020/12/12 08:51:04;;;;;;;66.05;14.95;;;6.10;99.90;;;;;;5003600;28;20117;-66
2020/12/12 08:53:32;;;;;;;48.33;13.25;;;6.10;99.90;;;;;;5017513;28;20072;-67
2020/12/12 08:56:01;;;;;;;58.70;14.45;;;6.10;99.90;;;;;;5008713;28;20026;-66
2020/12/12 08:58:42;;;;;;;66.00;13.65;;;6.20;99.90;;;;;;5009739;28;20045;-66
2020/12/12 09:01:12;;;;;;;59.33;12.77;;;6.20;99.90;;;;;;5007779;28;20065;-66
2020/12/12 09:03:52;;;;;;;56.08;13.23;;;6.20;99.90;;;;;;5010104;28;20202;-66
2020/12/12 09:06:18;;;;;;;53.45;13.57;;;6.30;99.90;;;;;;5004260;28;20491;-67
2020/12/12 09:08:44;;;;;;;53.42;13.68;;;6.30;99.90;;;;;;5003785;28;20037;-66
2020/12/12 09:11:13;;;;;;;59.13;14.70;;;6.30;99.90;;;;;;5004960;28;20029;-65
2020/12/12 09:13:39;;;;;;;55.45;14.93;;;6.40;99.90;;;;;;5001629;28;20036;-66
2020/12/12 09:16:08;;;;;;;86.38;17.27;;;6.40;99.90;;;;;;5006507;28;20858;-67
2020/12/12 09:18:44;;;;;;;84.70;15.82;;;6.40;99.90;;;;;;5005935;28;20034;-67
2020/12/12 09:21:10;;;;;;;66.85;15.77;;;6.50;99.90;;;;;;5001564;28;20042;-67
2020/12/12 09:23:36;;;;;;;59.20;14.85;;;6.40;99.90;;;;;;5001113;28;20407;-65
2020/12/12 09:26:02;;;;;;;97.95;17.75;;;6.50;99.90;;;;;;5003391;28;20030;-67
2020/12/12 09:28:27;;;;;;;76.53;15.27;;;6.50;99.90;;;;;;5000821;28;20085;-65
2020/12/12 09:30:53;;;;;;;51.92;13.45;;;6.60;99.90;;;;;;5003987;28;20034;-66
2020/12/12 09:33:18;;;;;;;61.53;14.73;;;6.60;99.90;;;;;;5002588;28;20057;-67
2020/12/12 09:35:44;;;;;;;55.63;14.93;;;6.60;99.90;;;;;;5001422;28;20088;-66
2020/12/12 09:38:09;;;;;;;83.30;16.35;;;6.60;99.90;;;;;;5002846;28;20041;-67
2020/12/12 09:40:35;;;;;;;61.70;15.38;;;6.70;99.90;;;;;;4999924;28;20041;-67
2020/12/12 09:43:00;;;;;;;96.78;16.88;;;6.70;99.90;;;;;;5004413;28;20030;-66
2020/12/12 09:45:26;;;;;;;61.08;15.23;;;6.70;99.90;;;;;;5005166;28;20467;-65
2020/12/12 09:47:51;;;;;;;55.33;14.55;;;6.80;99.90;;;;;;5001652;28;22205;-67
2020/12/12 09:50:17;;;;;;;90.65;16.00;;;6.80;99.90;;;;;;5004343;28;20026;-67
2020/12/12 09:52:43;;;;;;;83.57;16.35;;;6.90;99.90;;;;;;5001501;28;20149;-66
2020/12/12 09:55:08;;;;;;;87.20;17.55;;;6.90;99.90;;;;;;5006559;28;20034;-67
2020/12/12 09:57:34;;;;;;;86.70;16.25;;;7.00;99.90;;;;;;4999680;28;20057;-67
2020/12/12 09:59:59;;;;;;;96.75;17.83;;;7.00;99.90;;;;;;4999773;28;20085;-66
2020/12/12 10:02:25;;;;;;;72.03;16.70;;;7.10;99.90;;;;;;4996566;28;20101;-67
2020/12/12 10:04:51;;;;;;;102.40;16.88;;;7.10;99.90;;;;;;4999742;28;20139;-67
2020/12/12 10:07:17;;;;;;;123.40;19.95;;;7.20;99.90;;;;;;5000090;28;20107;-66
2020/12/12 10:09:42;;;;;;;76.55;17.13;;;7.20;99.90;;;;;;4998490;28;20495;-66
2020/12/12 10:12:08;;;;;;;96.20;18.73;;;7.20;99.90;;;;;;5003470;28;20034;-67
2020/12/12 10:14:33;;;;;;;117.20;20.60;;;7.30;99.90;;;;;;4997826;28;20088;-65
2020/12/12 10:16:59;;;;;;;89.78;18.83;;;7.30;99.90;;;;;;5000529;28;20030;-68
2020/12/12 10:19:24;;;;;;;65.88;16.52;;;7.30;99.90;;;;;;5000556;28;20117;-68
2020/12/12 10:21:50;;;;;;;122.57;19.77;;;7.40;99.90;;;;;;4996728;28;20030;-68
2020/12/12 10:24:16;;;;;;;120.47;21.48;;;7.40;99.90;;;;;;4999568;28;20038;-65
2020/12/12 10:26:44;;;;;;;134.18;22.83;;;7.50;99.90;;;;;;4999235;28;20708;-67
2020/12/12 10:29:10;;;;;;;92.95;19.50;;;7.50;99.90;;;;;;5000487;28;20525;-66
2020/12/12 10:31:36;;;;;;;83.88;18.15;;;7.50;99.90;;;;;;4997973;28;20046;-67
2020/12/12 10:34:01;;;;;;;85.65;19.67;;;7.50;99.90;;;;;;4999175;28;20042;-66
2020/12/12 10:36:27;;;;;;;108.75;21.45;;;7.50;99.90;;;;;;5004795;28;20303;-65
2020/12/12 10:38:52;;;;;;;84.78;18.83;;;7.50;99.90;;;;;;4997986;28;20034;-68
2020/12/12 10:41:18;;;;;;;86.40;17.13;;;7.60;99.90;;;;;;4999957;28;20089;-67
2020/12/12 10:43:43;;;;;;;101.22;20.35;;;7.60;99.90;;;;;;4998195;28;20038;-67
2020/12/12 10:46:09;;;;;;;78.95;19.40;;;7.60;99.90;;;;;;4998119;28;20476;-66
2020/12/12 10:48:35;;;;;;;88.53;19.10;;;7.60;99.90;;;;;;4997813;28;20042;-67
2020/12/12 10:51:00;;;;;;;76.63;18.33;;;7.70;99.90;;;;;;4996765;28;20026;-66
2020/12/12 10:53:26;;;;;;;81.85;19.25;;;7.70;99.90;;;;;;5000353;28;20034;-67
2020/12/12 10:55:51;;;;;;;81.82;17.25;;;7.70;99.90;;;;;;4997066;28;20080;-65
2020/12/12 10:58:17;;;;;;;88.97;19.23;;;7.70;99.90;;;;;;4999974;28;20025;-66
2020/12/12 11:00:45;;;;;;;93.18;19.67;;;7.80;99.90;;;;;;5005680;28;20042;-67
2020/12/12 11:03:11;;;;;;;88.28;20.75;;;7.80;99.90;;;;;;5002055;28;20034;-66
2020/12/12 11:05:37;;;;;;;90.78;20.38;;;7.80;99.90;;;;;;5003307;28;20073;-67
2020/12/12 11:08:03;;;;;;;91.43;20.40;;;7.80;99.90;;;;;;5004690;28;20037;-66
2020/12/12 11:10:29;;;;;;;85.75;19.52;;;7.80;99.90;;;;;;5001792;28;20121;-66
2020/12/12 11:12:54;;;;;;;100.75;19.23;;;7.90;99.90;;;;;;5000334;28;20118;-66
2020/12/12 11:15:20;;;;;;;85.68;18.77;;;8.00;99.90;;;;;;5001842;28;20523;-67
2020/12/12 11:17:46;;;;;;;99.32;19.23;;;8.00;99.90;;;;;;5004165;28;20045;-67
2020/12/12 11:20:15;;;;;;;92.55;20.55;;;8.00;99.90;;;;;;5003255;28;20533;-67
2020/12/12 11:22:42;;;;;;;107.75;21.23;;;8.00;99.90;;;;;;5003672;28;20037;-66
2020/12/12 11:25:09;;;;;;;96.03;19.45;;;8.10;99.90;;;;;;5003556;28;20030;-66
2020/12/12 11:27:35;;;;;;;98.10;20.10;;;8.20;99.90;;;;;;5002749;28;20042;-67
2020/12/12 11:30:01;;;;;;;118.63;22.48;;;8.20;99.90;;;;;;5003070;28;20042;-66
2020/12/12 11:32:27;;;;;;;92.47;20.02;;;8.30;99.90;;;;;;5001739;28;20030;-67
2020/12/12 11:35:03;;;;;;;107.15;21.98;;;8.20;99.90;;;;;;5004870;28;20033;-67
2020/12/12 11:47:35;;;;;;;83.30;19.23;;;8.30;99.90;;;;;;5003376;28;20340;-65
2020/12/12 11:50:00;;;;;;;101.63;21.60;;;8.30;99.90;;;;;;5000331;28;20027;-66
2020/12/12 11:52:26;;;;;;;95.15;19.58;;;8.40;99.90;;;;;;5004400;28;20503;-66
2020/12/12 11:54:51;;;;;;;110.72;20.30;;;8.40;99.90;;;;;;5001211;28;20409;-66
2020/12/12 11:57:17;;;;;;;102.13;20.08;;;8.50;99.90;;;;;;5003806;28;20495;-66
2020/12/12 11:59:44;;;;;;;88.20;18.20;;;8.50;99.90;;;;;;5002433;28;20475;-65
2020/12/12 12:02:10;;;;;;;92.03;18.25;;;8.50;99.90;;;;;;5002280;28;20030;-66
2020/12/12 12:04:36;;;;;;;82.35;17.23;;;8.50;99.90;;;;;;5001956;28;20104;-66
2020/12/12 12:07:02;;;;;;;75.90;19.75;;;8.50;99.90;;;;;;5002860;28;20113;-65
2020/12/12 12:09:43;;;;;;;90.35;19.02;;;8.60;99.90;;;;;;5003565;28;20045;-66
2020/12/12 12:12:09;;;;;;;83.47;18.35;;;8.60;99.90;;;;;;5001961;28;20038;-66
2020/12/12 12:14:35;;;;;;;74.97;17.20;;;8.60;99.90;;;;;;5002520;28;20480;-67
2020/12/12 12:17:00;;;;;;;92.07;18.75;;;8.60;99.90;;;;;;5001252;28;20031;-66
2020/12/12 12:19:26;;;;;;;93.38;19.65;;;8.60;99.90;;;;;;5003760;28;20030;-67
2020/12/12 12:21:52;;;;;;;85.32;19.77;;;8.60;99.90;;;;;;5000928;28;20030;-66
2020/12/12 12:24:19;;;;;;;75.32;17.67;;;8.70;99.90;;;;;;5003965;28;20030;-66
2020/12/12 12:26:48;;;;;;;76.85;19.25;;;8.70;99.90;;;;;;5001271;28;20049;-66
2020/12/12 12:29:15;;;;;;;73.05;17.35;;;8.80;99.90;;;;;;5003504;28;20037;-66
2020/12/12 12:31:41;;;;;;;75.10;17.73;;;8.80;99.90;;;;;;5001588;28;20569;-66
2020/12/12 12:34:07;;;;;;;66.70;18.00;;;8.80;99.90;;;;;;5002887;28;20061;-66
2020/12/12 12:36:33;;;;;;;63.90;15.77;;;8.90;99.90;;;;;;5002444;28;20042;-66
2020/12/12 12:39:00;;;;;;;56.33;16.05;;;8.90;99.90;;;;;;5001222;28;20147;-66
2020/12/12 12:41:27;;;;;;;68.65;17.15;;;8.90;99.90;;;;;;5000977;28;20510;-67
2020/12/12 12:43:54;;;;;;;56.17;16.85;;;8.90;99.90;;;;;;5008258;28;20037;-65
2020/12/12 12:46:21;;;;;;;59.13;16.77;;;8.90;99.90;;;;;;5005634;28;20092;-67
2020/12/12 12:48:48;;;;;;;61.38;18.65;;;8.90;99.90;;;;;;4999664;28;20061;-64
2020/12/12 12:51:14;;;;;;;58.88;16.38;;;8.80;99.90;;;;;;5002536;28;20042;-67
2020/12/12 12:53:39;;;;;;;50.45;16.00;;;8.80;99.90;;;;;;5001232;28;20113;-66